createdAt,value
2022-10-22T00:01:53.339Z,95888.38
2022-10-22T00:04:58.153Z,95883.31
2022-10-22T00:08:01.575Z,95893.16
2022-10-22T00:11:10.875Z,95890.50
2022-10-22T00:14:13.995Z,95885.47
2022-10-22T00:17:17.207Z,95891.84
2022-10-22T00:20:22.828Z,95890.78
2022-10-22T00:23:25.840Z,95891.84
2022-10-22T00:26:29.129Z,95896.09
2022-10-22T00:29:32.541Z,95893.44
2022-10-22T00:32:35.596Z,95891.06
2022-10-22T00:35:40.192Z,95877.75
2022-10-22T00:38:45.776Z,95868.47
2022-10-22T00:41:51.084Z,95864.75
2022-10-22T00:45:21.222Z,95870.31
2022-10-22T00:48:27.184Z,95868.47
2022-10-22T00:51:35.275Z,95859.44
2022-10-22T00:54:39.844Z,95868.47
2022-10-22T00:57:43.319Z,95873.78
2022-10-22T01:00:46.531Z,95865.03
2022-10-22T01:03:50.322Z,95867.94
2022-10-22T01:06:55.027Z,95859.97
2022-10-22T01:10:06.527Z,95846.94
2022-10-22T01:13:23.153Z,95840.03
2022-10-22T01:16:35.341Z,95831.84
2022-10-22T01:19:56.231Z,95834.44
2022-10-22T01:23:07.615Z,95824.38
2022-10-22T01:26:25.434Z,95835.81
2022-10-22T01:29:35.083Z,95831.28
2022-10-22T01:32:42.671Z,95827.03
2022-10-22T01:35:47.118Z,95821.19
2022-10-22T01:38:52.429Z,95822.78
2022-10-22T01:41:56.892Z,95818.25
2022-10-22T01:45:01.397Z,95808.72
2022-10-22T01:48:17.678Z,95806.31
2022-10-22T01:51:31.216Z,95807.13
2022-10-22T01:54:41.556Z,95813.22
2022-10-22T01:57:52.246Z,95818.78
2022-10-22T02:01:01.969Z,95820.66
2022-10-22T02:04:13.296Z,95819.63
2022-10-22T02:07:22.384Z,95818.00
2022-10-22T02:10:26.627Z,95811.38
2022-10-22T02:13:35.073Z,95812.72
2022-10-22T02:16:43.248Z,95823.06
2022-10-22T02:19:52.364Z,95821.22
2022-10-22T02:22:56.440Z,95822.78
2022-10-22T02:26:04.932Z,95812.72
2022-10-22T02:29:15.016Z,95812.72
2022-10-22T02:32:24.292Z,95811.94
2022-10-22T02:35:29.470Z,95810.06
2022-10-22T02:38:34.421Z,95822.56
2022-10-22T02:41:38.728Z,95822.56
2022-10-22T02:44:42.000Z,95815.91
2022-10-22T02:47:46.641Z,95815.66
2022-10-22T02:50:49.714Z,95825.47
2022-10-22T02:53:53.132Z,95840.59
2022-10-22T02:56:56.241Z,95836.09
2022-10-22T02:59:59.323Z,95837.16
2022-10-22T03:03:03.858Z,95839.81
2022-10-22T03:06:07.406Z,95826.81
2022-10-22T03:09:10.475Z,95837.44
2022-10-22T03:12:13.593Z,95824.44
2022-10-22T03:15:16.670Z,95833.47
2022-10-22T03:18:21.208Z,95835.06
2022-10-22T03:21:31.631Z,95816.47
2022-10-22T03:24:39.229Z,95827.88
2022-10-22T03:27:43.302Z,95822.03
2022-10-22T03:30:46.561Z,95819.66
2022-10-22T03:33:51.061Z,95811.69
2022-10-22T03:36:55.672Z,95818.88
2022-10-22T03:39:59.688Z,95823.91
2022-10-22T03:43:03.076Z,95815.97
2022-10-22T03:46:06.407Z,95818.06
2022-10-22T03:49:10.882Z,95810.09
2022-10-22T03:52:15.808Z,95809.03
2022-10-22T03:55:19.242Z,95805.84
2022-10-22T03:58:22.464Z,95817.28
2022-10-22T04:01:26.606Z,95813.34
2022-10-22T04:04:31.212Z,95821.28
2022-10-22T04:07:34.417Z,95819.41
2022-10-22T04:10:38.120Z,95811.22
2022-10-22T04:13:41.279Z,95813.31
2022-10-22T04:16:44.587Z,95813.88
2022-10-22T04:19:49.175Z,95805.63
2022-10-22T04:22:52.526Z,95816.25
2022-10-22T04:26:00.248Z,95803.22
2022-10-22T04:29:03.390Z,95804.03
2022-10-22T04:32:06.791Z,95802.16
2022-10-22T04:35:11.556Z,95805.63
2022-10-22T04:38:14.902Z,95803.50
2022-10-22T04:41:20.810Z,95808.03
2022-10-22T04:44:23.894Z,95800.06
2022-10-22T04:47:27.047Z,95804.56
2022-10-22T04:50:32.527Z,95798.19
2022-10-22T04:53:36.975Z,95800.84
2022-10-22T04:56:40.152Z,95796.34
2022-10-22T04:59:43.280Z,95808.03
2022-10-22T05:02:50.864Z,95814.94
2022-10-22T05:05:56.090Z,95820.25
2022-10-22T05:09:01.958Z,95819.44
2022-10-22T05:12:07.160Z,95810.69
2022-10-22T05:15:11.250Z,95820.50
2022-10-22T05:18:16.710Z,95831.13
2022-10-22T05:21:23.513Z,95837.25
2022-10-22T05:24:27.549Z,95835.63
2022-10-22T05:27:30.612Z,95840.94
2022-10-22T05:30:34.587Z,95842.81
2022-10-22T05:33:37.650Z,95836.69
2022-10-22T05:36:42.121Z,95834.03
2022-10-22T05:39:57.564Z,95846.25
2022-10-22T05:43:09.937Z,95841.75
2022-10-22T05:46:19.827Z,95848.13
2022-10-22T05:49:25.142Z,95843.09
2022-10-22T05:52:29.640Z,95841.75
2022-10-22T05:55:37.606Z,95834.84
2022-10-22T05:58:41.324Z,95835.13
2022-10-22T06:01:44.574Z,95837.47
2022-10-22T06:04:48.873Z,95833.75
2022-10-22T06:07:56.060Z,95839.28
2022-10-22T06:10:59.815Z,95839.28
2022-10-22T06:14:02.883Z,95845.41
2022-10-22T06:17:06.016Z,95849.38
2022-10-22T06:20:10.754Z,95850.38
2022-10-22T06:23:15.824Z,95850.91
2022-10-22T06:26:19.026Z,95851.97
2022-10-22T06:29:22.238Z,95859.09
2022-10-22T06:32:25.392Z,95853.47
2022-10-22T06:35:28.526Z,95843.84
2022-10-22T06:38:33.242Z,95852.28
2022-10-22T06:41:36.358Z,95858.63
2022-10-22T06:44:39.458Z,95860.59
2022-10-22T06:47:43.091Z,95858.47
2022-10-22T06:50:46.705Z,95859.50
2022-10-22T06:53:51.677Z,95856.56
2022-10-22T06:56:54.925Z,95859.97
2022-10-22T06:59:58.348Z,95851.44
2022-10-22T07:03:01.435Z,95857.22
2022-10-22T07:06:08.785Z,95868.88
2022-10-22T07:09:13.310Z,95859.81
2022-10-22T07:12:16.703Z,95853.06
2022-10-22T07:15:19.764Z,95849.81
2022-10-22T07:18:23.539Z,95853.00
2022-10-22T07:21:26.736Z,95840.19
2022-10-22T07:24:31.678Z,95847.88
2022-10-22T07:27:34.892Z,95845.13
2022-10-22T07:30:38.927Z,95849.38
2022-10-22T07:33:42.742Z,95847.75
2022-10-22T07:36:45.870Z,95851.72
2022-10-22T07:39:50.599Z,95842.09
2022-10-22T07:42:54.021Z,95846.06
2022-10-22T07:45:57.196Z,95844.69
2022-10-22T07:49:01.033Z,95836.69
2022-10-22T07:52:04.393Z,95821.47
2022-10-22T07:55:09.830Z,95818.00
2022-10-22T07:58:12.942Z,95810.56
2022-10-22T08:01:16.131Z,95815.03
2022-10-22T08:04:19.278Z,95809.69
2022-10-22T08:07:22.511Z,95811.56
2022-10-22T08:10:27.210Z,95819.28
2022-10-22T08:13:31.609Z,95813.88
2022-10-22T08:16:36.689Z,95813.06
2022-10-22T08:19:39.799Z,95806.94
2022-10-22T08:22:42.936Z,95808.53
2022-10-22T08:25:47.502Z,95814.66
2022-10-22T08:28:51.117Z,95804.00
2022-10-22T08:31:56.004Z,95792.53
2022-10-22T08:34:59.126Z,95796.28
2022-10-22T08:38:02.443Z,95792.53
2022-10-22T08:41:11.895Z,95796.28
2022-10-22T08:44:52.463Z,95809.63
2022-10-22T08:48:19.576Z,95804.06
2022-10-22T08:51:25.744Z,95802.19
2022-10-22T08:54:37.974Z,95800.13
2022-10-22T08:57:52.327Z,95788.44
2022-10-22T09:01:01.054Z,95789.25
2022-10-22T09:04:10.424Z,95789.50
2022-10-22T09:07:13.511Z,95797.50
2022-10-22T09:10:16.860Z,95793.50
2022-10-22T09:13:23.275Z,95788.69
2022-10-22T09:16:36.683Z,95786.31
2022-10-22T09:19:48.296Z,95781.50
2022-10-22T09:22:58.686Z,95781.47
2022-10-22T09:26:01.987Z,95775.13
2022-10-22T09:29:07.359Z,95781.25
2022-10-22T09:32:10.633Z,95774.53
2022-10-22T09:35:15.346Z,95768.13
2022-10-22T09:38:21.691Z,95767.63
2022-10-22T09:41:29.773Z,95758.28
2022-10-22T09:44:37.654Z,95766.25
2022-10-22T09:48:00.577Z,95754.53
2022-10-22T09:51:13.381Z,95743.06
2022-10-22T09:54:19.299Z,95725.78
2022-10-22T09:57:23.604Z,95732.91
2022-10-22T10:00:29.240Z,95730.34
2022-10-22T10:03:34.189Z,95734.78
2022-10-22T10:06:39.178Z,95738.81
2022-10-22T10:09:42.282Z,95728.97
2022-10-22T10:12:50.246Z,95716.72
2022-10-22T10:15:59.266Z,95711.09
2022-10-22T10:19:26.020Z,95725.22
2022-10-22T10:22:45.489Z,95731.41
2022-10-22T10:25:54.711Z,95718.38
2022-10-22T10:29:08.810Z,95707.97
2022-10-22T10:32:29.182Z,95707.97
2022-10-22T10:35:42.007Z,95691.19
2022-10-22T10:38:57.116Z,95695.75
2022-10-22T10:42:07.058Z,95687.75
2022-10-22T10:45:19.485Z,95680.81
2022-10-22T10:48:36.180Z,95674.19
2022-10-22T10:51:47.736Z,95663.31
2022-10-22T10:55:01.623Z,95663.31
2022-10-22T10:58:19.901Z,95660.66
2022-10-22T11:01:35.812Z,95645.75
2022-10-22T11:05:04.898Z,95642.88
2022-10-22T11:08:14.303Z,95640.22
2022-10-22T11:11:22.410Z,95626.66
2022-10-22T11:14:31.973Z,95618.66
2022-10-22T11:17:41.381Z,95616.78
2022-10-22T11:21:05.028Z,95618.66
2022-10-22T11:24:17.226Z,95607.03
2022-10-22T11:27:28.308Z,95596.56
2022-10-22T11:30:36.238Z,95590.53
2022-10-22T11:33:45.894Z,95588.88
2022-10-22T11:36:51.883Z,95578.59
2022-10-22T11:39:59.834Z,95577.22
2022-10-22T11:43:06.910Z,95572.28
2022-10-22T11:46:28.645Z,95564.34
2022-10-22T11:49:44.297Z,95567.78
2022-10-22T11:53:00.932Z,95555.84
2022-10-22T11:56:25.931Z,95560.66
2022-10-22T11:59:40.773Z,95552.47
2022-10-22T12:02:46.072Z,95564.72
2022-10-22T12:06:04.759Z,95552.97
2022-10-22T12:09:12.235Z,95551.97
2022-10-22T12:12:17.034Z,95548.53
2022-10-22T12:15:25.844Z,95546.66
2022-10-22T12:18:36.175Z,95539.25
2022-10-22T12:21:40.269Z,95538.16
2022-10-22T12:24:47.937Z,95530.47
2022-10-22T12:27:53.519Z,95526.50
2022-10-22T12:31:00.445Z,95526.78
2022-10-22T12:34:03.608Z,95541.41
2022-10-22T12:37:07.782Z,95532.91
2022-10-22T12:40:24.443Z,95529.72
2022-10-22T12:43:29.841Z,95521.25
2022-10-22T12:46:37.260Z,95529.72
2022-10-22T12:49:44.101Z,95525.50
2022-10-22T12:52:47.412Z,95517.31
2022-10-22T12:55:56.173Z,95517.00
2022-10-22T12:59:03.864Z,95512.75
2022-10-22T13:02:18.661Z,95502.91
2022-10-22T13:05:28.691Z,95504.78
2022-10-22T13:08:35.434Z,95504.28
2022-10-22T13:11:43.048Z,95502.41
2022-10-22T13:14:47.385Z,95501.13
2022-10-22T13:17:50.971Z,95493.13
2022-10-22T13:20:56.017Z,95498.16
2022-10-22T13:24:01.565Z,95494.22
2022-10-22T13:27:10.400Z,95490.47
2022-10-22T13:30:21.346Z,95487.81
2022-10-22T13:33:27.741Z,95482.00
2022-10-22T13:36:31.021Z,95492.13
2022-10-22T13:39:35.373Z,95477.22
2022-10-22T13:42:40.811Z,95482.84
2022-10-22T13:45:44.613Z,95479.09
2022-10-22T13:48:51.143Z,95475.94
2022-10-22T13:51:56.767Z,95472.47
2022-10-22T13:54:59.974Z,95462.63
2022-10-22T13:58:12.027Z,95473.56
2022-10-22T14:01:21.621Z,95465.09
2022-10-22T14:04:24.987Z,95481.53
2022-10-22T14:07:28.153Z,95478.38
2022-10-22T14:10:31.741Z,95472.56
2022-10-22T14:13:36.223Z,95479.47
2022-10-22T14:16:41.068Z,95470.97
2022-10-22T14:19:47.238Z,95476.81
2022-10-22T14:22:52.088Z,95471.78
2022-10-22T14:25:55.279Z,95461.41
2022-10-22T14:29:15.456Z,95456.16
2022-10-22T14:32:21.373Z,95455.59
2022-10-22T14:35:25.019Z,95449.75
2022-10-22T14:38:28.171Z,95454.53
2022-10-22T14:41:31.943Z,95454.53
2022-10-22T14:44:40.007Z,95458.53
2022-10-22T14:47:43.444Z,95454.00
2022-10-22T14:50:48.240Z,95455.88
2022-10-22T14:53:51.467Z,95457.72
2022-10-22T14:56:55.054Z,95456.94
2022-10-22T14:59:59.923Z,95466.78
2022-10-22T15:03:04.329Z,95464.41
2022-10-22T15:06:08.347Z,95467.06
2022-10-22T15:09:11.596Z,95469.72
2022-10-22T15:12:14.748Z,95458.28
2022-10-22T15:15:21.998Z,95460.16
2022-10-22T15:18:32.176Z,95447.13
2022-10-22T15:21:35.387Z,95462.31
2022-10-22T15:30:52.797Z,95459.66
2022-10-22T15:33:59.507Z,95461.53
2022-10-22T15:37:06.765Z,95470.59
2022-10-22T15:40:11.227Z,95455.19
2022-10-22T15:43:14.457Z,95466.84
2022-10-22T15:46:20.635Z,95472.75
2022-10-22T15:49:24.995Z,95473.81
2022-10-22T15:55:31.547Z,95479.66
2022-10-22T15:58:34.728Z,95480.72
2022-10-22T16:01:39.659Z,95479.94
2022-10-22T16:04:42.990Z,95491.66
2022-10-22T16:07:46.297Z,95487.13
2022-10-22T16:10:49.698Z,95497.78
2022-10-22T16:13:57.137Z,95496.69
2022-10-22T16:17:01.793Z,95503.88
2022-10-22T16:20:05.327Z,95504.25
2022-10-22T16:23:09.038Z,95510.56
2022-10-22T16:26:13.161Z,95517.47
2022-10-22T16:29:16.822Z,95522.78
2022-10-22T16:32:21.555Z,95514.03
2022-10-22T16:35:24.657Z,95506.03
2022-10-22T16:38:27.840Z,95502.09
2022-10-22T16:41:35.333Z,95501.50
2022-10-22T16:44:40.228Z,95497.25
2022-10-22T16:47:47.044Z,95505.31
2022-10-22T16:50:50.120Z,95503.97
2022-10-22T16:53:53.745Z,95496.47
2022-10-22T16:56:57.174Z,95486.13
2022-10-22T17:00:00.258Z,95502.38
2022-10-22T17:03:05.128Z,95495.69
2022-10-22T17:06:09.262Z,95484.53
2022-10-22T17:09:12.650Z,95473.13
2022-10-22T17:12:15.887Z,95489.88
2022-10-22T17:15:19.087Z,95490.16
2022-10-22T17:18:23.618Z,95489.88
2022-10-22T17:21:27.109Z,95488.00
2022-10-22T17:24:30.195Z,95477.16
2022-10-22T17:27:33.386Z,95474.19
2022-10-22T17:30:38.982Z,95473.69
2022-10-22T17:33:43.742Z,95479.00
2022-10-22T17:36:46.894Z,95489.66
2022-10-22T17:39:50.048Z,95499.22
2022-10-22T17:42:53.241Z,95488.84
2022-10-22T17:46:05.303Z,95488.84
2022-10-22T17:49:17.306Z,95504.00
2022-10-22T17:52:20.593Z,95496.81
2022-10-22T17:55:24.512Z,95508.53
2022-10-22T17:58:27.728Z,95505.09
2022-10-22T18:01:32.741Z,95512.28
2022-10-22T18:04:37.376Z,95495.81
2022-10-22T18:07:40.494Z,95514.94
2022-10-22T18:10:43.755Z,95506.94
2022-10-22T18:13:50.589Z,95513.34
2022-10-22T18:16:54.650Z,95509.41
2022-10-22T18:19:59.235Z,95511.06
2022-10-22T18:23:03.725Z,95510.97
2022-10-22T18:26:07.556Z,95518.97
2022-10-22T18:29:12.134Z,95519.25
2022-10-22T18:32:15.280Z,95518.16
2022-10-22T18:35:21.321Z,95505.44
2022-10-22T18:38:24.753Z,95512.63
2022-10-22T18:41:28.802Z,95515.28
2022-10-22T18:44:32.446Z,95519.81
2022-10-22T18:47:35.696Z,95520.31
2022-10-22T18:50:40.204Z,95521.41
2022-10-22T18:53:53.718Z,95519.03
2022-10-22T18:57:06.836Z,95517.16
2022-10-22T19:00:11.327Z,95520.09
2022-10-22T19:03:20.526Z,95525.13
2022-10-22T19:06:31.986Z,95529.16
2022-10-22T19:09:36.709Z,95539.00
2022-10-22T19:12:40.550Z,95538.50
2022-10-22T19:15:44.022Z,95544.91
2022-10-22T19:18:47.252Z,95551.22
2022-10-22T19:21:52.524Z,95557.63
2022-10-22T19:24:55.886Z,95556.56
2022-10-22T19:27:59.165Z,95554.47
2022-10-22T19:31:02.868Z,95554.97
2022-10-22T19:34:06.604Z,95548.09
2022-10-22T19:37:15.958Z,95562.16
2022-10-22T19:40:20.694Z,95545.44
2022-10-22T19:43:23.966Z,95553.97
2022-10-22T19:46:29.688Z,95551.00
2022-10-22T19:49:38.440Z,95540.13
2022-10-22T19:52:43.504Z,95540.38
2022-10-22T19:55:56.127Z,95536.63
2022-10-22T19:58:59.691Z,95533.47
2022-10-22T20:02:02.841Z,95528.94
2022-10-22T20:05:06.923Z,95532.69
2022-10-22T20:08:12.544Z,95544.38
2022-10-22T20:11:23.925Z,95541.44
2022-10-22T20:14:27.252Z,95540.66
2022-10-22T20:17:30.659Z,95534.81
2022-10-22T20:20:33.739Z,95535.88
2022-10-22T20:23:38.878Z,95531.06
2022-10-22T20:26:42.333Z,95520.44
2022-10-22T20:29:46.016Z,95534.81
2022-10-22T20:32:49.530Z,95533.22
2022-10-22T20:36:02.878Z,95533.22
2022-10-22T20:39:09.904Z,95534.81
2022-10-22T20:42:13.000Z,95527.91
2022-10-22T20:45:16.114Z,95524.75
2022-10-22T20:48:19.906Z,95535.09
2022-10-22T20:51:23.478Z,95537.47
2022-10-22T20:54:27.993Z,95528.75
2022-10-22T20:57:32.103Z,95537.25
2022-10-22T21:00:36.986Z,95536.97
2022-10-22T21:03:40.878Z,95529.28
2022-10-22T21:06:44.343Z,95538.03
2022-10-22T21:09:48.786Z,95536.97
2022-10-22T21:12:51.814Z,95540.19
2022-10-22T21:15:56.628Z,95546.00
2022-10-22T21:19:00.914Z,95545.22
2022-10-22T21:22:04.430Z,95542.84
2022-10-22T21:25:09.825Z,95554.28
2022-10-22T21:28:12.910Z,95552.41
2022-10-22T21:31:21.909Z,95550.03
2022-10-22T21:34:25.320Z,95547.38
2022-10-22T21:37:30.150Z,95542.06
2022-10-22T21:40:37.076Z,95535.94
2022-10-22T21:43:42.216Z,95531.72
2022-10-22T21:46:45.703Z,95532.78
2022-10-22T21:49:48.798Z,95529.84
2022-10-22T21:52:51.854Z,95538.09
2022-10-22T21:55:56.287Z,95524.03
2022-10-22T21:58:59.627Z,95513.66
2022-10-22T22:02:05.627Z,95520.56
2022-10-22T22:05:10.046Z,95519.78
2022-10-22T22:08:13.578Z,95536.53
2022-10-22T22:11:20.398Z,95543.44
2022-10-22T22:14:23.524Z,95541.84
2022-10-22T22:17:26.627Z,95539.19
2022-10-22T22:20:31.046Z,95546.38
2022-10-22T22:23:34.805Z,95547.16
2022-10-22T22:26:39.327Z,95544.50
2022-10-22T22:29:42.350Z,95541.63
2022-10-22T22:32:48.532Z,95530.69
2022-10-22T22:35:51.559Z,95530.41
2022-10-22T22:38:56.130Z,95520.06
2022-10-22T22:42:00.894Z,95512.41
2022-10-22T22:45:03.932Z,95518.47
2022-10-22T22:48:07.620Z,95516.63
2022-10-22T22:51:12.253Z,95508.94
2022-10-22T22:54:15.358Z,95519.56
2022-10-22T22:57:19.794Z,95521.16
2022-10-22T23:00:23.014Z,95498.63
2022-10-22T23:03:26.291Z,95511.88
2022-10-22T23:06:31.493Z,95519.56
2022-10-22T23:09:34.560Z,95532.06
2022-10-22T23:12:39.261Z,95513.72
2022-10-22T23:15:42.513Z,95524.09
2022-10-22T23:18:46.502Z,95528.63
2022-10-22T23:21:51.401Z,95536.06
2022-10-22T23:24:54.689Z,95544.56
2022-10-22T23:27:59.576Z,95539.25
2022-10-22T23:31:05.334Z,95531.31
2022-10-22T23:34:10.386Z,95538.22
2022-10-22T23:37:14.027Z,95539.50
2022-10-22T23:40:17.179Z,95541.38
2022-10-22T23:43:21.714Z,95546.69
2022-10-22T23:46:24.801Z,95544.31
2022-10-22T23:49:27.964Z,95548.84
2022-10-22T23:52:31.036Z,95548.56
2022-10-22T23:55:34.622Z,95541.66
2022-10-22T23:58:39.176Z,95548.84
